sensor_id;sensor_type;location;lat;lon;timestamp;temperature;humidity
20690;DHT22;10504;48.762;8.996;2022-07-05T00:00:44;16.40;99.90
20690;DHT22;10504;48.762;8.996;2022-07-05T00:03:10;16.40;99.90
20690;DHT22;10504;48.762;8.996;2022-07-05T00:05:36;16.40;99.90
20690;DHT22;10504;48.762;8.996;2022-07-05T00:08:02;16.50;99.90
20690;DHT22;10504;48.762;8.996;2022-07-05T00:10:28;16.40;99.90
20690;DHT22;10504;48.762;8.996;2022-07-05T00:12:54;16.30;99.90
20690;DHT22;10504;48.762;8.996;2022-07-05T00:15:19;16.30;99.90
20690;DHT22;10504;48.762;8.996;2022-07-05T00:17:45;16.30;99.90
20690;DHT22;10504;48.762;8.996;2022-07-05T00:20:11;16.30;99.90
20690;DHT22;10504;48.762;8.996;2022-07-05T00:22:37;16.20;99.90
20690;DHT22;10504;48.762;8.996;2022-07-05T00:25:02;16.20;99.90
20690;DHT22;10504;48.762;8.996;2022-07-05T00:27:28;16.10;99.90
20690;DHT22;10504;48.762;8.996;2022-07-05T00:29:54;16.00;99.90
20690;DHT22;10504;48.762;8.996;2022-07-05T00:32:20;16.10;99.90
20690;DHT22;10504;48.762;8.996;2022-07-05T00:34:45;16.10;99.90
20690;DHT22;10504;48.762;8.996;2022-07-05T00:37:11;16.10;99.90
20690;DHT22;10504;48.762;8.996;2022-07-05T00:39:37;16.00;99.90
20690;DHT22;10504;48.762;8.996;2022-07-05T00:42:03;16.00;99.90
20690;DHT22;10504;48.762;8.996;2022-07-05T00:44:32;15.90;99.90
20690;DHT22;10504;48.762;8.996;2022-07-05T00:46:58;15.90;99.90
20690;DHT22;10504;48.762;8.996;2022-07-05T00:49:24;15.80;99.90
20690;DHT22;10504;48.762;8.996;2022-07-05T00:51:49;15.80;99.90
20690;DHT22;10504;48.762;8.996;2022-07-05T00:54:15;15.80;99.90
20690;DHT22;10504;48.762;8.996;2022-07-05T00:56:41;15.80;99.90
20690;DHT22;10504;48.762;8.996;2022-07-05T00:59:06;15.90;99.90
20690;DHT22;10504;48.762;8.996;2022-07-05T01:01:32;15.80;99.90
20690;DHT22;10504;48.762;8.996;2022-07-05T01:03:58;15.80;99.90
20690;DHT22;10504;48.762;8.996;2022-07-05T01:06:23;15.70;99.90
20690;DHT22;10504;48.762;8.996;2022-07-05T01:08:49;15.80;99.90
20690;DHT22;10504;48.762;8.996;2022-07-05T01:11:15;15.80;99.90
20690;DHT22;10504;48.762;8.996;2022-07-05T01:13:41;15.80;99.90
20690;DHT22;10504;48.762;8.996;2022-07-05T01:16:07;15.80;99.90
20690;DHT22;10504;48.762;8.996;2022-07-05T01:18:33;15.70;99.90
20690;DHT22;10504;48.762;8.996;2022-07-05T01:21:01;15.70;99.90
20690;DHT22;10504;48.762;8.996;2022-07-05T01:23:28;15.70;99.90
20690;DHT22;10504;48.762;8.996;2022-07-05T01:25:56;15.70;99.90
20690;DHT22;10504;48.762;8.996;2022-07-05T01:28:22;15.60;99.90
20690;DHT22;10504;48.762;8.996;2022-07-05T01:30:47;15.60;99.90
20690;DHT22;10504;48.762;8.996;2022-07-05T01:33:13;15.60;99.90
20690;DHT22;10504;48.762;8.996;2022-07-05T01:35:39;15.50;99.90
20690;DHT22;10504;48.762;8.996;2022-07-05T01:38:05;15.50;99.90
20690;DHT22;10504;48.762;8.996;2022-07-05T01:40:30;15.50;99.90
20690;DHT22;10504;48.762;8.996;2022-07-05T01:42:56;15.50;99.90
20690;DHT22;10504;48.762;8.996;2022-07-05T01:45:22;15.50;99.90
20690;DHT22;10504;48.762;8.996;2022-07-05T01:48:12;15.50;99.90
20690;DHT22;10504;48.762;8.996;2022-07-05T01:53:29;15.40;99.90
20690;DHT22;10504;48.762;8.996;2022-07-05T01:56:02;15.40;99.90
20690;DHT22;10504;48.762;8.996;2022-07-05T01:58:30;15.40;99.90
20690;DHT22;10504;48.762;8.996;2022-07-05T02:00:56;15.40;99.90
20690;DHT22;10504;48.762;8.996;2022-07-05T02:03:23;15.30;99.90
20690;DHT22;10504;48.762;8.996;2022-07-05T02:05:49;15.30;99.90
20690;DHT22;10504;48.762;8.996;2022-07-05T02:08:17;15.30;99.90
20690;DHT22;10504;48.762;8.996;2022-07-05T02:10:43;15.20;99.90
20690;DHT22;10504;48.762;8.996;2022-07-05T02:13:09;15.30;99.90
20690;DHT22;10504;48.762;8.996;2022-07-05T02:15:37;15.30;99.90
20690;DHT22;10504;48.762;8.996;2022-07-05T02:18:04;15.40;99.90
20690;DHT22;10504;48.762;8.996;2022-07-05T02:20:31;15.30;99.90
20690;DHT22;10504;48.762;8.996;2022-07-05T02:22:57;15.40;99.90
20690;DHT22;10504;48.762;8.996;2022-07-05T02:25:23;15.30;99.90
20690;DHT22;10504;48.762;8.996;2022-07-05T02:27:50;15.30;99.90
20690;DHT22;10504;48.762;8.996;2022-07-05T02:30:16;15.20;99.90
20690;DHT22;10504;48.762;8.996;2022-07-05T02:32:42;15.10;99.90
20690;DHT22;10504;48.762;8.996;2022-07-05T02:35:09;15.10;99.90
20690;DHT22;10504;48.762;8.996;2022-07-05T02:37:36;15.10;99.90
20690;DHT22;10504;48.762;8.996;2022-07-05T02:40:02;15.10;99.90
20690;DHT22;10504;48.762;8.996;2022-07-05T02:42:28;15.10;99.90
20690;DHT22;10504;48.762;8.996;2022-07-05T02:44:53;15.10;99.90
20690;DHT22;10504;48.762;8.996;2022-07-05T02:47:19;15.10;99.90
20690;DHT22;10504;48.762;8.996;2022-07-05T02:49:45;15.10;99.90
20690;DHT22;10504;48.762;8.996;2022-07-05T02:52:10;15.10;99.90
20690;DHT22;10504;48.762;8.996;2022-07-05T02:54:36;15.10;99.90
20690;DHT22;10504;48.762;8.996;2022-07-05T02:57:02;15.10;99.90
20690;DHT22;10504;48.762;8.996;2022-07-05T02:59:28;15.00;99.90
20690;DHT22;10504;48.762;8.996;2022-07-05T03:01:55;15.00;99.90
20690;DHT22;10504;48.762;8.996;2022-07-05T03:04:21;15.00;99.90
20690;DHT22;10504;48.762;8.996;2022-07-05T03:06:47;14.90;99.90
20690;DHT22;10504;48.762;8.996;2022-07-05T03:09:12;14.90;99.90
20690;DHT22;10504;48.762;8.996;2022-07-05T03:11:38;14.90;99.90
20690;DHT22;10504;48.762;8.996;2022-07-05T03:14:04;14.90;99.90
20690;DHT22;10504;48.762;8.996;2022-07-05T03:16:29;14.90;99.90
20690;DHT22;10504;48.762;8.996;2022-07-05T03:18:55;14.90;99.90
20690;DHT22;10504;48.762;8.996;2022-07-05T03:21:21;14.90;99.90
20690;DHT22;10504;48.762;8.996;2022-07-05T03:23:47;14.90;99.90
20690;DHT22;10504;48.762;8.996;2022-07-05T03:26:13;14.80;99.90
20690;DHT22;10504;48.762;8.996;2022-07-05T03:28:39;14.90;99.90
20690;DHT22;10504;48.762;8.996;2022-07-05T03:31:04;14.80;99.90
20690;DHT22;10504;48.762;8.996;2022-07-05T03:33:30;14.90;99.90
20690;DHT22;10504;48.762;8.996;2022-07-05T03:35:57;14.80;99.90
20690;DHT22;10504;48.762;8.996;2022-07-05T03:38:22;14.80;99.90
20690;DHT22;10504;48.762;8.996;2022-07-05T03:40:48;14.80;99.90
20690;DHT22;10504;48.762;8.996;2022-07-05T03:43:14;14.80;99.90
20690;DHT22;10504;48.762;8.996;2022-07-05T03:45:39;14.70;99.90
20690;DHT22;10504;48.762;8.996;2022-07-05T03:48:05;14.70;99.90
20690;DHT22;10504;48.762;8.996;2022-07-05T03:50:31;14.70;99.90
20690;DHT22;10504;48.762;8.996;2022-07-05T03:52:57;14.70;99.90
20690;DHT22;10504;48.762;8.996;2022-07-05T03:55:22;14.70;99.90
20690;DHT22;10504;48.762;8.996;2022-07-05T03:57:48;14.70;99.90
20690;DHT22;10504;48.762;8.996;2022-07-05T04:00:14;14.60;99.90
20690;DHT22;10504;48.762;8.996;2022-07-05T04:02:41;14.70;99.90
20690;DHT22;10504;48.762;8.996;2022-07-05T04:05:07;14.70;99.90
20690;DHT22;10504;48.762;8.996;2022-07-05T04:07:33;14.70;99.90
20690;DHT22;10504;48.762;8.996;2022-07-05T04:09:59;14.70;99.90
20690;DHT22;10504;48.762;8.996;2022-07-05T04:12:26;14.70;99.90
20690;DHT22;10504;48.762;8.996;2022-07-05T04:14:51;14.80;99.90
20690;DHT22;10504;48.762;8.996;2022-07-05T04:17:17;14.80;99.90
20690;DHT22;10504;48.762;8.996;2022-07-05T04:19:43;14.80;99.90
20690;DHT22;10504;48.762;8.996;2022-07-05T04:22:09;14.80;99.90
20690;DHT22;10504;48.762;8.996;2022-07-05T04:24:35;14.80;99.90
20690;DHT22;10504;48.762;8.996;2022-07-05T04:27:19;14.90;99.90
20690;DHT22;10504;48.762;8.996;2022-07-05T04:29:45;14.90;99.90
20690;DHT22;10504;48.762;8.996;2022-07-05T04:32:10;15.00;99.90
20690;DHT22;10504;48.762;8.996;2022-07-05T04:34:36;15.00;99.90
20690;DHT22;10504;48.762;8.996;2022-07-05T04:37:02;15.10;99.90
20690;DHT22;10504;48.762;8.996;2022-07-05T04:39:27;15.10;99.90
20690;DHT22;10504;48.762;8.996;2022-07-05T04:41:53;15.20;99.90
20690;DHT22;10504;48.762;8.996;2022-07-05T04:44:18;15.20;99.90
20690;DHT22;10504;48.762;8.996;2022-07-05T04:46:44;15.20;99.90
20690;DHT22;10504;48.762;8.996;2022-07-05T04:49:10;15.20;99.90
20690;DHT22;10504;48.762;8.996;2022-07-05T04:51:35;15.20;99.90
20690;DHT22;10504;48.762;8.996;2022-07-05T04:54:01;15.30;99.90
20690;DHT22;10504;48.762;8.996;2022-07-05T04:56:26;15.30;99.90
20690;DHT22;10504;48.762;8.996;2022-07-05T04:58:52;15.30;99.90
20690;DHT22;10504;48.762;8.996;2022-07-05T05:01:18;15.30;99.90
20690;DHT22;10504;48.762;8.996;2022-07-05T05:03:44;15.30;99.90
20690;DHT22;10504;48.762;8.996;2022-07-05T05:06:10;15.40;99.90
20690;DHT22;10504;48.762;8.996;2022-07-05T05:08:36;15.40;99.90
20690;DHT22;10504;48.762;8.996;2022-07-05T05:11:01;15.50;99.90
20690;DHT22;10504;48.762;8.996;2022-07-05T05:13:27;15.50;99.90
20690;DHT22;10504;48.762;8.996;2022-07-05T05:15:53;15.50;99.90
20690;DHT22;10504;48.762;8.996;2022-07-05T05:18:18;15.50;99.90
20690;DHT22;10504;48.762;8.996;2022-07-05T05:20:46;15.50;99.90
20690;DHT22;10504;48.762;8.996;2022-07-05T05:23:12;15.50;99.90
20690;DHT22;10504;48.762;8.996;2022-07-05T05:25:37;15.50;99.90
20690;DHT22;10504;48.762;8.996;2022-07-05T05:28:03;15.60;99.90
20690;DHT22;10504;48.762;8.996;2022-07-05T05:30:29;15.60;99.90
20690;DHT22;10504;48.762;8.996;2022-07-05T05:32:55;15.60;99.90
20690;DHT22;10504;48.762;8.996;2022-07-05T05:35:20;15.70;99.90
20690;DHT22;10504;48.762;8.996;2022-07-05T05:37:55;15.70;99.90
20690;DHT22;10504;48.762;8.996;2022-07-05T05:40:22;15.70;99.90
20690;DHT22;10504;48.762;8.996;2022-07-05T05:42:48;15.70;99.90
20690;DHT22;10504;48.762;8.996;2022-07-05T05:45:14;15.80;99.90
20690;DHT22;10504;48.762;8.996;2022-07-05T05:50:10;15.80;99.90
20690;DHT22;10504;48.762;8.996;2022-07-05T05:52:35;15.80;99.90
20690;DHT22;10504;48.762;8.996;2022-07-05T05:55:01;15.90;99.90
20690;DHT22;10504;48.762;8.996;2022-07-05T05:57:27;15.90;99.90
20690;DHT22;10504;48.762;8.996;2022-07-05T05:59:52;15.90;99.90
20690;DHT22;10504;48.762;8.996;2022-07-05T06:02:18;16.00;99.90
20690;DHT22;10504;48.762;8.996;2022-07-05T06:04:43;16.00;99.90
20690;DHT22;10504;48.762;8.996;2022-07-05T06:07:09;16.00;99.90
20690;DHT22;10504;48.762;8.996;2022-07-05T06:09:35;16.00;99.90
20690;DHT22;10504;48.762;8.996;2022-07-05T06:12:00;16.10;99.90
20690;DHT22;10504;48.762;8.996;2022-07-05T06:14:26;16.10;99.90
20690;DHT22;10504;48.762;8.996;2022-07-05T06:16:51;16.20;99.90
20690;DHT22;10504;48.762;8.996;2022-07-05T06:19:17;16.20;99.90
20690;DHT22;10504;48.762;8.996;2022-07-05T06:21:43;16.30;99.90
20690;DHT22;10504;48.762;8.996;2022-07-05T06:24:08;16.30;99.90
20690;DHT22;10504;48.762;8.996;2022-07-05T06:26:34;16.30;99.90
20690;DHT22;10504;48.762;8.996;2022-07-05T06:28:59;16.30;99.90
20690;DHT22;10504;48.762;8.996;2022-07-05T06:31:25;16.40;99.90
20690;DHT22;10504;48.762;8.996;2022-07-05T06:33:51;16.40;99.90
20690;DHT22;10504;48.762;8.996;2022-07-05T06:36:16;16.50;99.90
20690;DHT22;10504;48.762;8.996;2022-07-05T06:38:42;16.40;99.90
20690;DHT22;10504;48.762;8.996;2022-07-05T06:41:08;16.50;99.90
20690;DHT22;10504;48.762;8.996;2022-07-05T06:43:33;16.50;99.90
20690;DHT22;10504;48.762;8.996;2022-07-05T06:45:59;16.60;99.90
20690;DHT22;10504;48.762;8.996;2022-07-05T06:48:25;16.60;99.90
20690;DHT22;10504;48.762;8.996;2022-07-05T06:50:51;16.70;99.90
20690;DHT22;10504;48.762;8.996;2022-07-05T06:53:16;16.70;99.90
20690;DHT22;10504;48.762;8.996;2022-07-05T06:55:42;16.80;99.90
20690;DHT22;10504;48.762;8.996;2022-07-05T06:58:10;16.80;99.90
20690;DHT22;10504;48.762;8.996;2022-07-05T07:00:37;16.90;99.90
20690;DHT22;10504;48.762;8.996;2022-07-05T07:03:03;16.90;99.90
20690;DHT22;10504;48.762;8.996;2022-07-05T07:05:29;17.00;99.90
20690;DHT22;10504;48.762;8.996;2022-07-05T07:07:54;17.10;99.90
20690;DHT22;10504;48.762;8.996;2022-07-05T07:10:39;17.10;99.90
20690;DHT22;10504;48.762;8.996;2022-07-05T07:13:05;17.10;99.90
20690;DHT22;10504;48.762;8.996;2022-07-05T07:15:31;17.20;99.90
20690;DHT22;10504;48.762;8.996;2022-07-05T07:17:58;17.30;99.90
20690;DHT22;10504;48.762;8.996;2022-07-05T07:20:24;17.30;99.90
20690;DHT22;10504;48.762;8.996;2022-07-05T07:22:50;17.30;99.90
20690;DHT22;10504;48.762;8.996;2022-07-05T07:25:16;17.30;99.90
20690;DHT22;10504;48.762;8.996;2022-07-05T07:27:51;17.40;99.90
20690;DHT22;10504;48.762;8.996;2022-07-05T07:30:19;17.40;99.90
20690;DHT22;10504;48.762;8.996;2022-07-05T07:32:46;17.50;99.90
20690;DHT22;10504;48.762;8.996;2022-07-05T07:35:12;17.50;99.90
20690;DHT22;10504;48.762;8.996;2022-07-05T07:37:38;17.50;99.90
20690;DHT22;10504;48.762;8.996;2022-07-05T07:40:05;17.50;99.90
20690;DHT22;10504;48.762;8.996;2022-07-05T07:42:31;17.50;99.90
20690;DHT22;10504;48.762;8.996;2022-07-05T07:44:57;17.60;99.90
20690;DHT22;10504;48.762;8.996;2022-07-05T07:47:23;17.60;99.90
20690;DHT22;10504;48.762;8.996;2022-07-05T07:49:49;17.60;99.90
20690;DHT22;10504;48.762;8.996;2022-07-05T07:52:15;17.70;99.90
20690;DHT22;10504;48.762;8.996;2022-07-05T07:54:41;17.70;99.90
20690;DHT22;10504;48.762;8.996;2022-07-05T07:57:07;17.70;99.90
20690;DHT22;10504;48.762;8.996;2022-07-05T07:59:33;17.80;99.90
20690;DHT22;10504;48.762;8.996;2022-07-05T08:01:59;17.80;99.90
20690;DHT22;10504;48.762;8.996;2022-07-05T08:04:25;17.80;99.90
20690;DHT22;10504;48.762;8.996;2022-07-05T08:06:51;17.90;99.90
20690;DHT22;10504;48.762;8.996;2022-07-05T08:09:17;17.90;99.90
20690;DHT22;10504;48.762;8.996;2022-07-05T08:11:43;18.00;99.90
20690;DHT22;10504;48.762;8.996;2022-07-05T08:14:08;18.10;99.90
20690;DHT22;10504;48.762;8.996;2022-07-05T08:16:34;18.10;99.90
20690;DHT22;10504;48.762;8.996;2022-07-05T08:19:00;18.20;99.90
20690;DHT22;10504;48.762;8.996;2022-07-05T08:21:44;18.20;99.90
20690;DHT22;10504;48.762;8.996;2022-07-05T08:24:11;18.20;99.90
20690;DHT22;10504;48.762;8.996;2022-07-05T08:26:40;18.30;99.90
20690;DHT22;10504;48.762;8.996;2022-07-05T08:29:09;18.40;99.90
20690;DHT22;10504;48.762;8.996;2022-07-05T08:31:38;18.50;99.90
20690;DHT22;10504;48.762;8.996;2022-07-05T08:34:05;18.60;99.90
20690;DHT22;10504;48.762;8.996;2022-07-05T08:36:30;18.70;99.90
20690;DHT22;10504;48.762;8.996;2022-07-05T08:38:56;18.80;99.90
20690;DHT22;10504;48.762;8.996;2022-07-05T08:41:23;18.90;99.90
20690;DHT22;10504;48.762;8.996;2022-07-05T08:43:50;18.90;99.90
20690;DHT22;10504;48.762;8.996;2022-07-05T08:46:18;18.90;99.90
20690;DHT22;10504;48.762;8.996;2022-07-05T08:48:48;18.90;99.90
20690;DHT22;10504;48.762;8.996;2022-07-05T08:51:19;18.90;99.90
20690;DHT22;10504;48.762;8.996;2022-07-05T08:53:51;19.00;99.90
20690;DHT22;10504;48.762;8.996;2022-07-05T08:56:18;19.10;99.90
20690;DHT22;10504;48.762;8.996;2022-07-05T08:58:44;19.10;99.90
20690;DHT22;10504;48.762;8.996;2022-07-05T09:01:11;19.20;99.90
20690;DHT22;10504;48.762;8.996;2022-07-05T09:03:44;19.30;99.90
20690;DHT22;10504;48.762;8.996;2022-07-05T09:06:15;19.30;99.90
20690;DHT22;10504;48.762;8.996;2022-07-05T09:08:41;19.30;99.90
20690;DHT22;10504;48.762;8.996;2022-07-05T09:11:11;19.30;99.90
20690;DHT22;10504;48.762;8.996;2022-07-05T09:13:40;19.30;99.90
20690;DHT22;10504;48.762;8.996;2022-07-05T09:16:06;19.40;99.90
20690;DHT22;10504;48.762;8.996;2022-07-05T09:18:47;19.40;99.90
20690;DHT22;10504;48.762;8.996;2022-07-05T09:21:14;19.40;99.90
20690;DHT22;10504;48.762;8.996;2022-07-05T09:23:40;19.50;99.90
20690;DHT22;10504;48.762;8.996;2022-07-05T09:26:06;19.50;99.90
20690;DHT22;10504;48.762;8.996;2022-07-05T09:28:31;19.60;99.90
20690;DHT22;10504;48.762;8.996;2022-07-05T09:30:57;19.80;99.90
20690;DHT22;10504;48.762;8.996;2022-07-05T09:33:23;19.90;99.90
20690;DHT22;10504;48.762;8.996;2022-07-05T09:35:53;20.00;99.90
20690;DHT22;10504;48.762;8.996;2022-07-05T09:38:24;20.10;99.90
20690;DHT22;10504;48.762;8.996;2022-07-05T09:40:55;20.20;99.90
20690;DHT22;10504;48.762;8.996;2022-07-05T09:43:23;20.10;99.90
20690;DHT22;10504;48.762;8.996;2022-07-05T09:46:03;20.10;99.90
20690;DHT22;10504;48.762;8.996;2022-07-05T09:48:31;20.10;99.90
20690;DHT22;10504;48.762;8.996;2022-07-05T09:51:11;20.20;99.90
20690;DHT22;10504;48.762;8.996;2022-07-05T09:53:54;20.20;99.90
20690;DHT22;10504;48.762;8.996;2022-07-05T09:56:21;20.20;99.90
20690;DHT22;10504;48.762;8.996;2022-07-05T09:58:47;20.30;99.90
20690;DHT22;10504;48.762;8.996;2022-07-05T10:01:31;20.30;99.90
20690;DHT22;10504;48.762;8.996;2022-07-05T10:03:58;20.30;99.90
20690;DHT22;10504;48.762;8.996;2022-07-05T10:06:25;20.50;99.90
20690;DHT22;10504;48.762;8.996;2022-07-05T10:08:52;20.50;99.90
20690;DHT22;10504;48.762;8.996;2022-07-05T10:11:19;20.70;99.90
20690;DHT22;10504;48.762;8.996;2022-07-05T10:13:49;20.80;99.90
20690;DHT22;10504;48.762;8.996;2022-07-05T10:16:20;20.80;99.90
20690;DHT22;10504;48.762;8.996;2022-07-05T10:18:48;20.80;99.90
20690;DHT22;10504;48.762;8.996;2022-07-05T10:21:16;20.80;99.90
20690;DHT22;10504;48.762;8.996;2022-07-05T10:23:47;20.80;99.90
20690;DHT22;10504;48.762;8.996;2022-07-05T10:26:15;20.90;99.90
20690;DHT22;10504;48.762;8.996;2022-07-05T10:28:45;21.10;99.90
20690;DHT22;10504;48.762;8.996;2022-07-05T10:31:15;21.30;99.90
20690;DHT22;10504;48.762;8.996;2022-07-05T10:33:41;21.60;99.90
20690;DHT22;10504;48.762;8.996;2022-07-05T10:36:10;21.80;99.90
20690;DHT22;10504;48.762;8.996;2022-07-05T10:38:42;22.10;99.90
20690;DHT22;10504;48.762;8.996;2022-07-05T10:41:10;22.40;99.90
20690;DHT22;10504;48.762;8.996;2022-07-05T10:43:36;22.60;99.90
20690;DHT22;10504;48.762;8.996;2022-07-05T10:46:02;22.70;99.90
20690;DHT22;10504;48.762;8.996;2022-07-05T10:48:32;22.80;99.90
20690;DHT22;10504;48.762;8.996;2022-07-05T10:53:27;22.80;99.90
20690;DHT22;10504;48.762;8.996;2022-07-05T11:03:43;22.90;99.90
20690;DHT22;10504;48.762;8.996;2022-07-05T11:12:03;23.50;99.90
20690;DHT22;10504;48.762;8.996;2022-07-05T11:14:32;23.70;99.90
20690;DHT22;10504;48.762;8.996;2022-07-05T11:17:13;23.80;99.90
20690;DHT22;10504;48.762;8.996;2022-07-05T11:22:26;23.40;99.90
20690;DHT22;10504;48.762;8.996;2022-07-05T11:24:52;23.30;99.90
20690;DHT22;10504;48.762;8.996;2022-07-05T11:27:18;23.20;99.90
20690;DHT22;10504;48.762;8.996;2022-07-05T11:32:12;23.30;99.90
20690;DHT22;10504;48.762;8.996;2022-07-05T11:34:42;23.50;99.90
20690;DHT22;10504;48.762;8.996;2022-07-05T11:39:43;23.80;99.90
20690;DHT22;10504;48.762;8.996;2022-07-05T11:42:10;23.80;99.90
20690;DHT22;10504;48.762;8.996;2022-07-05T11:44:37;23.70;99.90
20690;DHT22;10504;48.762;8.996;2022-07-05T11:47:05;23.70;99.90
20690;DHT22;10504;48.762;8.996;2022-07-05T11:49:32;23.70;99.90
20690;DHT22;10504;48.762;8.996;2022-07-05T11:52:02;23.90;99.90
20690;DHT22;10504;48.762;8.996;2022-07-05T11:54:32;23.90;99.90
20690;DHT22;10504;48.762;8.996;2022-07-05T11:57:02;24.00;99.90
20690;DHT22;10504;48.762;8.996;2022-07-05T11:59:28;24.10;99.90
20690;DHT22;10504;48.762;8.996;2022-07-05T12:01:54;23.90;99.90
20690;DHT22;10504;48.762;8.996;2022-07-05T12:04:24;23.70;99.90
20690;DHT22;10504;48.762;8.996;2022-07-05T12:06:51;23.80;99.90
20690;DHT22;10504;48.762;8.996;2022-07-05T12:09:23;24.00;99.90
20690;DHT22;10504;48.762;8.996;2022-07-05T12:11:56;24.10;99.90
20690;DHT22;10504;48.762;8.996;2022-07-05T12:14:48;24.50;99.90
20690;DHT22;10504;48.762;8.996;2022-07-05T12:17:15;24.60;99.90
20690;DHT22;10504;48.762;8.996;2022-07-05T12:19:41;24.30;99.90
20690;DHT22;10504;48.762;8.996;2022-07-05T12:22:07;24.00;99.90
20690;DHT22;10504;48.762;8.996;2022-07-05T12:24:34;23.80;99.90
20690;DHT22;10504;48.762;8.996;2022-07-05T12:27:00;23.60;99.80
20690;DHT22;10504;48.762;8.996;2022-07-05T12:29:27;23.40;99.90
20690;DHT22;10504;48.762;8.996;2022-07-05T12:34:26;23.50;99.90
20690;DHT22;10504;48.762;8.996;2022-07-05T12:36:52;23.50;99.90
20690;DHT22;10504;48.762;8.996;2022-07-05T12:39:17;23.70;99.90
20690;DHT22;10504;48.762;8.996;2022-07-05T12:41:43;23.90;99.90
20690;DHT22;10504;48.762;8.996;2022-07-05T12:44:09;24.00;99.90
20690;DHT22;10504;48.762;8.996;2022-07-05T12:46:39;24.10;99.90
20690;DHT22;10504;48.762;8.996;2022-07-05T12:49:06;24.40;99.90
20690;DHT22;10504;48.762;8.996;2022-07-05T12:51:37;24.40;99.90
20690;DHT22;10504;48.762;8.996;2022-07-05T12:54:06;24.50;99.90
20690;DHT22;10504;48.762;8.996;2022-07-05T12:56:52;24.60;99.90
20690;DHT22;10504;48.762;8.996;2022-07-05T12:59:37;24.60;98.80
20690;DHT22;10504;48.762;8.996;2022-07-05T13:02:04;24.70;99.90
20690;DHT22;10504;48.762;8.996;2022-07-05T13:04:30;24.60;97.30
20690;DHT22;10504;48.762;8.996;2022-07-05T13:07:00;24.60;98.20
20690;DHT22;10504;48.762;8.996;2022-07-05T13:12:24;24.50;97.30
20690;DHT22;10504;48.762;8.996;2022-07-05T13:14:52;24.30;98.10
20690;DHT22;10504;48.762;8.996;2022-07-05T13:17:20;24.20;98.30
20690;DHT22;10504;48.762;8.996;2022-07-05T13:19:51;24.10;98.40
20690;DHT22;10504;48.762;8.996;2022-07-05T13:22:17;23.90;97.10
20690;DHT22;10504;48.762;8.996;2022-07-05T13:24:44;23.70;98.20
20690;DHT22;10504;48.762;8.996;2022-07-05T13:27:10;23.60;99.60
20690;DHT22;10504;48.762;8.996;2022-07-05T13:29:36;23.50;99.40
20690;DHT22;10504;48.762;8.996;2022-07-05T13:32:03;23.60;99.90
20690;DHT22;10504;48.762;8.996;2022-07-05T13:34:29;23.60;99.60
20690;DHT22;10504;48.762;8.996;2022-07-05T13:36:56;23.50;99.90
20690;DHT22;10504;48.762;8.996;2022-07-05T13:39:22;23.60;99.90
20690;DHT22;10504;48.762;8.996;2022-07-05T13:41:49;23.80;99.90
20690;DHT22;10504;48.762;8.996;2022-07-05T13:44:15;23.80;99.90
20690;DHT22;10504;48.762;8.996;2022-07-05T13:46:41;23.80;99.90
20690;DHT22;10504;48.762;8.996;2022-07-05T13:49:07;23.90;99.90
20690;DHT22;10504;48.762;8.996;2022-07-05T13:51:32;24.10;99.90
20690;DHT22;10504;48.762;8.996;2022-07-05T13:53:58;24.20;99.00
20690;DHT22;10504;48.762;8.996;2022-07-05T13:56:24;24.40;99.90
20690;DHT22;10504;48.762;8.996;2022-07-05T13:58:51;24.50;96.00
20690;DHT22;10504;48.762;8.996;2022-07-05T14:01:17;24.60;97.30
20690;DHT22;10504;48.762;8.996;2022-07-05T14:03:45;24.60;95.40
20690;DHT22;10504;48.762;8.996;2022-07-05T14:06:11;24.60;97.00
20690;DHT22;10504;48.762;8.996;2022-07-05T14:08:36;24.40;95.50
20690;DHT22;10504;48.762;8.996;2022-07-05T14:11:03;24.30;96.20
20690;DHT22;10504;48.762;8.996;2022-07-05T14:13:29;24.40;95.60
20690;DHT22;10504;48.762;8.996;2022-07-05T14:15:55;24.70;98.70
20690;DHT22;10504;48.762;8.996;2022-07-05T14:18:22;24.90;95.20
20690;DHT22;10504;48.762;8.996;2022-07-05T14:20:50;25.20;93.10
20690;DHT22;10504;48.762;8.996;2022-07-05T14:23:16;25.30;95.40
20690;DHT22;10504;48.762;8.996;2022-07-05T14:25:42;25.30;95.40
20690;DHT22;10504;48.762;8.996;2022-07-05T14:28:08;25.30;92.80
20690;DHT22;10504;48.762;8.996;2022-07-05T14:30:41;25.40;94.20
20690;DHT22;10504;48.762;8.996;2022-07-05T14:33:12;25.30;93.20
20690;DHT22;10504;48.762;8.996;2022-07-05T14:35:39;25.10;94.00
20690;DHT22;10504;48.762;8.996;2022-07-05T14:38:05;24.90;95.00
20690;DHT22;10504;48.762;8.996;2022-07-05T14:40:32;24.80;93.70
20690;DHT22;10504;48.762;8.996;2022-07-05T14:42:58;24.60;93.50
20690;DHT22;10504;48.762;8.996;2022-07-05T14:45:25;24.50;95.10
20690;DHT22;10504;48.762;8.996;2022-07-05T14:47:52;24.30;94.40
20690;DHT22;10504;48.762;8.996;2022-07-05T14:50:18;24.30;93.60
20690;DHT22;10504;48.762;8.996;2022-07-05T14:52:46;24.20;92.70
20690;DHT22;10504;48.762;8.996;2022-07-05T14:55:12;24.10;94.70
20690;DHT22;10504;48.762;8.996;2022-07-05T14:57:40;23.90;95.30
20690;DHT22;10504;48.762;8.996;2022-07-05T15:00:08;24.00;96.00
20690;DHT22;10504;48.762;8.996;2022-07-05T15:02:35;24.00;96.80
20690;DHT22;10504;48.762;8.996;2022-07-05T15:05:01;23.90;95.90
20690;DHT22;10504;48.762;8.996;2022-07-05T15:07:27;23.80;96.80
20690;DHT22;10504;48.762;8.996;2022-07-05T15:09:53;23.70;96.50
20690;DHT22;10504;48.762;8.996;2022-07-05T15:12:18;23.70;96.40
20690;DHT22;10504;48.762;8.996;2022-07-05T15:14:44;23.70;93.00
20690;DHT22;10504;48.762;8.996;2022-07-05T15:17:10;23.80;94.60
20690;DHT22;10504;48.762;8.996;2022-07-05T15:19:36;23.80;93.70
20690;DHT22;10504;48.762;8.996;2022-07-05T15:22:04;23.90;93.80
20690;DHT22;10504;48.762;8.996;2022-07-05T15:24:30;24.00;93.10
20690;DHT22;10504;48.762;8.996;2022-07-05T15:26:56;24.10;94.50
20690;DHT22;10504;48.762;8.996;2022-07-05T15:29:21;24.10;91.60
20690;DHT22;10504;48.762;8.996;2022-07-05T15:31:47;24.20;92.10
20690;DHT22;10504;48.762;8.996;2022-07-05T15:34:12;24.20;94.40
20690;DHT22;10504;48.762;8.996;2022-07-05T15:36:38;24.30;93.80
20690;DHT22;10504;48.762;8.996;2022-07-05T15:39:05;24.40;88.30
20690;DHT22;10504;48.762;8.996;2022-07-05T15:41:32;24.40;90.00
20690;DHT22;10504;48.762;8.996;2022-07-05T15:43:59;24.40;90.00
20690;DHT22;10504;48.762;8.996;2022-07-05T15:46:25;24.30;91.00
20690;DHT22;10504;48.762;8.996;2022-07-05T15:48:50;24.30;89.70
20690;DHT22;10504;48.762;8.996;2022-07-05T15:51:17;24.30;90.60
20690;DHT22;10504;48.762;8.996;2022-07-05T15:53:46;24.30;90.40
20690;DHT22;10504;48.762;8.996;2022-07-05T15:56:12;24.20;89.60
20690;DHT22;10504;48.762;8.996;2022-07-05T15:58:38;24.20;92.00
20690;DHT22;10504;48.762;8.996;2022-07-05T16:01:05;24.10;89.90
20690;DHT22;10504;48.762;8.996;2022-07-05T16:03:31;24.00;89.90